Sunny Bay, Washington
Current Conditions -  °F | °C
As of 1:53 AM on Tuesday 27 Jan 2015 (Local Time) from KTIW Reporting Station
Overcast Overcast  
Wind Chill: 46°   Ceiling: 1900
Heat Index: 49°   Visibility: 10mi
Dew Point: 47°   Wind: 7mph
Humidity: 93%   Direction: 220°SW
Pressure: 29.99"   Gusts: NA
Location:  47.2986°N, 122.616°W
Report Text: KTIW 270953Z AUTO 22006KT 10SM OVC019 09/08 A2999 RMK AO2 SLP155 T00940083
Loading
Personal Weather Stations






























Interactive Weather Map New forecast layout! Learn more

10-Day Weather Forecast

Advertisements
Track Severe Weather on mobile